PILOTS ONLINE: 272    ATC ONLINE: 30

CYYH

Taloyoak Airport

Location

IATA YYH
City Taloyoak
Country  Canada
Latitude 69° 32' 48" N
Longitude 93° 34' 36" W
Elevation 92 ft
Type Medium Airport

Map

Weather

METAR
2014/09/20 07:00
CYYH 200700Z 31011KT 15SM SCT008 BKN049 M06/M09 A2975 RMK ST2SC3 SLP078
TAF
2014/09/20 06:39
TAF CYYH 200538Z 2006/2018 31010KT P6SM FEW015 BKN050 
      TEMPO 2006/2018 5SM -SN BKN015 
      BECMG 2016/2018 28010KT 
      RMK NXT FCST BY 201200Z

Runways

15T/33T 4020 ft / 100 ft

Outbound flights

Callsign Flying to Pilot ATD/STD ETA Aircraft

Inbound flights

Callsign Flying from Pilot ATD ETA Aircraft